createdAt,value
2018-02-10T00:00:06.709Z,111.80
2018-02-10T00:02:32.978Z,97.17
2018-02-10T00:04:59.246Z,100.77
2018-02-10T00:07:25.530Z,136.60
2018-02-10T00:09:51.798Z,200.53
2018-02-10T00:12:18.090Z,130.20
2018-02-10T00:14:44.376Z,135.73
2018-02-10T00:17:10.645Z,126.23
2018-02-10T00:19:36.947Z,124.10
2018-02-10T00:22:03.224Z,106.10
2018-02-10T00:24:29.520Z,97.53
2018-02-10T00:26:56.529Z,97.63
2018-02-10T00:29:22.782Z,85.43
2018-02-10T00:31:49.809Z,80.17
2018-02-10T00:34:16.086Z,81.63
2018-02-10T00:36:42.362Z,107.57
2018-02-10T00:39:08.642Z,89.27
2018-02-10T00:41:34.899Z,88.33
2018-02-10T00:44:01.939Z,79.10
2018-02-10T00:46:28.227Z,86.87
2018-02-10T00:48:54.546Z,77.00
2018-02-10T00:51:20.810Z,87.07
2018-02-10T00:53:47.066Z,74.33
2018-02-10T00:56:14.122Z,85.33
2018-02-10T00:58:40.382Z,84.60
2018-02-10T01:01:06.658Z,78.53
2018-02-10T01:03:32.918Z,86.53
2018-02-10T01:05:59.198Z,83.50
2018-02-10T01:08:25.475Z,80.37
2018-02-10T01:10:51.725Z,90.27
2018-02-10T01:13:17.996Z,102.03
2018-02-10T01:15:44.994Z,111.17
2018-02-10T01:18:11.267Z,89.87
2018-02-10T01:20:37.554Z,89.23
2018-02-10T01:23:04.551Z,95.73
2018-02-10T01:25:30.839Z,89.83
2018-02-10T01:27:57.173Z,96.10
2018-02-10T01:30:23.430Z,65.43
2018-02-10T01:32:50.518Z,94.20
2018-02-10T01:35:16.794Z,85.20
2018-02-10T01:37:43.067Z,77.83
2018-02-10T01:40:09.358Z,91.10
2018-02-10T01:42:35.610Z,80.77
2018-02-10T01:45:01.910Z,102.23
2018-02-10T01:47:28.179Z,76.97
2018-02-10T01:50:06.648Z,80.33
2018-02-10T01:52:33.651Z,78.00
2018-02-10T01:54:59.914Z,84.77
2018-02-10T01:57:26.190Z,81.23
2018-02-10T01:59:52.451Z,91.53
2018-02-10T02:02:18.730Z,80.37
2018-02-10T02:04:45.019Z,75.80
2018-02-10T02:07:11.270Z,84.13
2018-02-10T02:09:38.287Z,87.77
2018-02-10T02:12:04.550Z,94.87
2018-02-10T02:14:30.829Z,84.57
2018-02-10T02:16:57.082Z,82.03
2018-02-10T02:19:23.362Z,85.70
2018-02-10T02:21:50.373Z,88.97
2018-02-10T02:24:16.638Z,81.70
2018-02-10T02:26:42.895Z,86.27
2018-02-10T02:29:09.173Z,91.60
2018-02-10T02:31:35.426Z,99.30
2018-02-10T02:34:01.691Z,101.57
2018-02-10T02:36:28.004Z,111.57
2018-02-10T02:38:54.259Z,91.10
2018-02-10T02:41:20.517Z,86.40
2018-02-10T02:43:47.526Z,98.33
2018-02-10T02:46:13.796Z,92.03
2018-02-10T02:48:40.078Z,83.40
2018-02-10T02:51:07.117Z,96.67
2018-02-10T02:53:34.119Z,92.33
2018-02-10T02:56:00.397Z,91.20
2018-02-10T02:58:26.650Z,82.23
2018-02-10T03:00:52.923Z,91.43
2018-02-10T03:03:19.189Z,80.37
2018-02-10T03:05:45.483Z,85.50
2018-02-10T03:08:11.753Z,79.57
2018-02-10T03:10:38.019Z,81.17
2018-02-10T03:13:04.314Z,78.47
2018-02-10T03:15:30.578Z,79.07
2018-02-10T03:17:57.578Z,84.00
2018-02-10T03:20:23.855Z,73.47
2018-02-10T03:22:50.118Z,69.50
2018-02-10T03:25:16.410Z,85.63
2018-02-10T03:27:42.666Z,85.50
2018-02-10T03:30:09.666Z,86.87
2018-02-10T03:32:35.961Z,83.70
2018-02-10T03:35:02.217Z,89.13
2018-02-10T03:37:28.548Z,75.07
2018-02-10T03:39:54.789Z,88.17
2018-02-10T03:42:21.089Z,73.43
2018-02-10T03:44:47.379Z,76.20
2018-02-10T03:47:13.643Z,84.43
2018-02-10T03:49:39.925Z,80.43
2018-02-10T03:52:06.975Z,85.20
2018-02-10T03:54:33.245Z,87.37
2018-02-10T03:56:59.528Z,86.37
2018-02-10T03:59:25.796Z,91.57
2018-02-10T04:01:52.837Z,106.40
2018-02-10T04:04:19.841Z,83.10
2018-02-10T04:06:46.127Z,93.83
2018-02-10T04:09:12.414Z,101.87
2018-02-10T04:11:38.670Z,98.70
2018-02-10T04:14:04.982Z,98.20
2018-02-10T04:16:31.242Z,101.73
2018-02-10T04:18:58.254Z,106.73
2018-02-10T04:21:24.586Z,99.73
2018-02-10T04:23:51.618Z,113.13
2018-02-10T04:26:18.642Z,112.37
2018-02-10T04:28:45.635Z,107.23
2018-02-10T04:31:11.893Z,94.83
2018-02-10T04:33:38.918Z,102.07
2018-02-10T04:36:05.913Z,98.43
2018-02-10T04:38:32.190Z,100.20
2018-02-10T04:40:58.490Z,87.07
2018-02-10T04:43:25.497Z,95.03
2018-02-10T04:45:51.769Z,94.63
2018-02-10T04:48:18.017Z,98.70
2018-02-10T04:50:44.311Z,114.37
2018-02-10T04:53:10.589Z,104.00
2018-02-10T04:55:36.846Z,107.80
2018-02-10T04:58:03.117Z,107.57
2018-02-10T05:00:30.105Z,90.63
2018-02-10T05:02:56.377Z,90.73
2018-02-10T05:05:22.684Z,100.47
2018-02-10T05:07:48.960Z,98.63
2018-02-10T05:10:15.245Z,99.63
2018-02-10T05:12:41.493Z,97.30
2018-02-10T05:15:07.770Z,95.13
2018-02-10T05:17:34.047Z,86.77
2018-02-10T05:20:01.046Z,89.17
2018-02-10T05:22:27.339Z,97.17
2018-02-10T05:24:53.613Z,89.60
2018-02-10T05:27:20.628Z,85.37
2018-02-10T05:29:46.896Z,87.67
2018-02-10T05:32:13.157Z,97.77
2018-02-10T05:34:40.186Z,88.27
2018-02-10T05:37:06.446Z,110.30
2018-02-10T05:39:32.725Z,85.00
2018-02-10T05:41:59.721Z,96.37
2018-02-10T05:44:26.019Z,90.77
2018-02-10T05:46:52.284Z,84.97
2018-02-10T05:49:19.287Z,100.27
2018-02-10T05:51:45.573Z,84.57
2018-02-10T05:54:11.883Z,86.53
2018-02-10T05:56:38.138Z,86.70
2018-02-10T05:59:04.573Z,90.17
2018-02-10T06:01:30.832Z,97.60
2018-02-10T06:03:57.112Z,99.23
2018-02-10T06:06:24.117Z,85.97
2018-02-10T06:08:50.380Z,84.40
2018-02-10T06:11:16.669Z,100.17
2018-02-10T06:13:43.657Z,80.50
2018-02-10T06:16:09.913Z,96.37
2018-02-10T06:18:36.212Z,105.57
2018-02-10T06:21:02.469Z,100.27
2018-02-10T06:23:28.750Z,99.30
2018-02-10T06:25:55.023Z,97.83
2018-02-10T06:28:21.293Z,86.70
2018-02-10T06:30:48.312Z,93.97
2018-02-10T06:33:14.698Z,99.90
2018-02-10T06:35:40.989Z,91.10
2018-02-10T06:38:07.242Z,84.80
2018-02-10T06:40:33.496Z,95.40
2018-02-10T06:43:00.530Z,86.20
2018-02-10T06:45:27.530Z,80.70
2018-02-10T06:47:53.809Z,86.60
2018-02-10T06:50:20.065Z,79.40
2018-02-10T06:52:46.321Z,90.63
2018-02-10T06:55:12.624Z,86.23
2018-02-10T06:57:39.629Z,88.37
2018-02-10T07:00:05.909Z,88.77
2018-02-10T07:02:32.162Z,85.97
2018-02-10T07:04:58.416Z,80.20
2018-02-10T07:07:24.708Z,84.53
2018-02-10T07:09:51.723Z,83.30
2018-02-10T07:12:18.014Z,80.97
2018-02-10T07:14:44.264Z,85.30
2018-02-10T07:17:11.261Z,76.63
2018-02-10T07:19:37.538Z,79.13
2018-02-10T07:22:03.792Z,82.10
2018-02-10T07:24:30.071Z,74.37
2018-02-10T07:26:56.315Z,73.10
2018-02-10T07:29:22.573Z,78.63
2018-02-10T07:31:48.873Z,79.93
2018-02-10T07:34:15.139Z,75.73
2018-02-10T07:36:41.426Z,73.17
2018-02-10T07:39:08.428Z,61.73
2018-02-10T07:41:35.178Z,69.13
2018-02-10T07:44:02.266Z,66.33
2018-02-10T07:46:29.068Z,68.87
2018-02-10T07:48:55.499Z,69.70
2018-02-10T07:51:21.769Z,68.00
2018-02-10T07:53:48.826Z,73.70
2018-02-10T07:56:15.173Z,73.30
2018-02-10T07:58:41.463Z,64.93
2018-02-10T08:01:07.748Z,66.93
2018-02-10T08:03:36.293Z,74.03
2018-02-10T08:06:02.549Z,67.43
2018-02-10T08:08:28.856Z,68.83
2018-02-10T08:10:55.873Z,69.63
2018-02-10T08:13:22.902Z,73.37
2018-02-10T08:15:49.179Z,62.63
2018-02-10T08:18:15.487Z,65.80
2018-02-10T08:20:41.757Z,71.47
2018-02-10T08:23:08.766Z,72.50
2018-02-10T08:25:35.094Z,69.30
2018-02-10T08:28:01.373Z,65.43
2018-02-10T08:30:27.646Z,63.57
2018-02-10T08:32:53.937Z,63.97
2018-02-10T08:35:20.193Z,65.67
2018-02-10T08:37:46.469Z,68.30
2018-02-10T08:40:12.734Z,64.90
2018-02-10T08:42:38.993Z,69.83
2018-02-10T08:45:05.288Z,66.87
2018-02-10T08:47:31.557Z,75.87
2018-02-10T08:49:57.882Z,60.83
2018-02-10T08:52:24.165Z,90.73
2018-02-10T08:54:51.169Z,78.07
2018-02-10T08:57:17.477Z,76.80
2018-02-10T08:59:43.749Z,66.77
2018-02-10T09:02:10.038Z,66.33
2018-02-10T09:04:36.308Z,59.80
2018-02-10T09:07:02.590Z,62.73
2018-02-10T09:09:29.625Z,64.77
2018-02-10T09:11:55.921Z,56.23
2018-02-10T09:14:26.635Z,61.17
2018-02-10T09:16:56.588Z,56.67
2018-02-10T09:19:24.078Z,51.93
2018-02-10T09:21:52.759Z,56.80
2018-02-10T09:24:21.198Z,51.67
2018-02-10T09:26:48.976Z,56.40
2018-02-10T09:29:17.339Z,49.90
2018-02-10T09:31:45.976Z,53.53
2018-02-10T09:34:13.099Z,52.93
2018-02-10T09:36:39.440Z,48.87
2018-02-10T09:39:05.735Z,50.10
2018-02-10T09:41:32.009Z,48.23
2018-02-10T09:43:58.285Z,51.37
2018-02-10T09:46:24.585Z,50.17
2018-02-10T09:48:52.059Z,48.20
2018-02-10T09:51:18.458Z,47.47
2018-02-10T09:53:44.761Z,46.27
2018-02-10T09:56:11.050Z,48.53
2018-02-10T09:58:37.365Z,48.43
2018-02-10T10:01:03.658Z,49.47
2018-02-10T10:03:29.945Z,47.80
2018-02-10T10:05:56.254Z,44.73
2018-02-10T10:08:28.520Z,42.40
2018-02-10T10:10:54.866Z,46.17
2018-02-10T10:13:21.144Z,42.70
2018-02-10T10:15:47.439Z,45.20
2018-02-10T10:18:13.734Z,45.47
2018-02-10T10:20:40.035Z,52.23
2018-02-10T10:23:06.334Z,47.53
2018-02-10T10:25:32.602Z,45.70
2018-02-10T10:27:58.930Z,46.07
2018-02-10T10:30:25.204Z,46.17
2018-02-10T10:32:51.478Z,47.67
2018-02-10T10:35:18.513Z,42.03
2018-02-10T10:37:45.538Z,43.77
2018-02-10T10:40:12.592Z,40.23
2018-02-10T10:42:38.863Z,44.80
2018-02-10T10:45:05.141Z,39.37
2018-02-10T10:47:31.443Z,39.77
2018-02-10T10:49:57.693Z,41.43
2018-02-10T10:52:23.966Z,38.07
2018-02-10T10:54:50.249Z,38.43
2018-02-10T10:57:16.496Z,39.53
2018-02-10T10:59:42.855Z,41.10
2018-02-10T11:02:09.155Z,37.23
2018-02-10T11:04:35.430Z,42.97
2018-02-10T11:07:02.479Z,38.13
2018-02-10T11:09:28.753Z,42.77
2018-02-10T11:11:55.019Z,37.53
2018-02-10T11:14:21.293Z,36.43
2018-02-10T11:16:47.560Z,38.30
2018-02-10T11:19:13.878Z,34.03
2018-02-10T11:21:40.140Z,36.87
2018-02-10T11:24:06.437Z,30.40
2018-02-10T11:26:32.857Z,32.40
2018-02-10T11:28:59.112Z,26.53
2018-02-10T11:31:25.461Z,28.97
2018-02-10T11:33:51.733Z,29.73
2018-02-10T11:36:18.003Z,28.63
2018-02-10T11:38:44.297Z,34.97
2018-02-10T11:41:10.598Z,35.57
2018-02-10T11:43:36.873Z,35.37
2018-02-10T11:46:03.929Z,25.37
2018-02-10T11:48:30.217Z,25.17
2018-02-10T11:50:57.240Z,31.33
2018-02-10T11:53:23.511Z,29.40
2018-02-10T11:55:49.790Z,27.30
2018-02-10T11:58:16.793Z,28.83
2018-02-10T12:00:43.120Z,37.40
2018-02-10T12:03:09.413Z,39.87
2018-02-10T12:05:35.708Z,43.40
2018-02-10T12:08:02.085Z,33.93
2018-02-10T12:10:28.371Z,33.60
2018-02-10T12:12:54.630Z,34.20
2018-02-10T12:15:21.057Z,37.33
2018-02-10T12:17:47.320Z,31.63
2018-02-10T12:20:13.630Z,34.40
2018-02-10T12:22:39.906Z,32.40
2018-02-10T12:25:06.160Z,36.73
2018-02-10T12:27:32.450Z,34.90
2018-02-10T12:29:58.694Z,32.87
2018-02-10T12:32:24.980Z,30.47
2018-02-10T12:34:51.229Z,30.67
2018-02-10T12:37:17.490Z,30.17
2018-02-10T12:39:43.773Z,26.27
2018-02-10T12:42:10.786Z,31.80
2018-02-10T12:44:37.103Z,26.43
2018-02-10T12:47:03.390Z,36.57
2018-02-10T12:49:29.759Z,34.17
2018-02-10T12:51:58.206Z,31.27
2018-02-10T12:54:30.557Z,29.67
2018-02-10T12:57:04.769Z,30.43
2018-02-10T12:59:40.233Z,25.93
2018-02-10T13:02:09.988Z,27.00
2018-02-10T13:04:37.132Z,24.23
2018-02-10T13:07:03.992Z,31.57
2018-02-10T13:09:30.265Z,24.53
2018-02-10T13:11:57.314Z,29.23
2018-02-10T13:14:24.809Z,22.13
2018-02-10T13:16:51.972Z,20.57
2018-02-10T13:19:18.236Z,20.27
2018-02-10T13:21:44.628Z,21.23
2018-02-10T13:24:10.929Z,17.37
2018-02-10T13:26:37.214Z,22.40
2018-02-10T13:29:03.514Z,22.60
2018-02-10T13:31:29.778Z,24.93
2018-02-10T13:33:56.825Z,25.47
2018-02-10T13:36:23.118Z,24.10
2018-02-10T13:38:49.481Z,24.53
2018-02-10T13:41:16.618Z,25.00
2018-02-10T13:43:42.889Z,23.63
2018-02-10T13:46:09.191Z,25.17
2018-02-10T13:48:38.304Z,24.37
2018-02-10T13:51:05.367Z,21.93
2018-02-10T13:53:31.648Z,19.80
2018-02-10T13:55:58.658Z,21.73
2018-02-10T13:58:24.954Z,31.60
2018-02-10T14:00:51.250Z,20.30
2018-02-10T14:03:17.553Z,22.00
2018-02-10T14:05:43.829Z,19.43
2018-02-10T14:08:10.968Z,27.00
2018-02-10T14:10:38.070Z,23.60
2018-02-10T14:13:04.354Z,20.73
2018-02-10T14:15:30.629Z,22.63
2018-02-10T14:17:57.630Z,22.70
2018-02-10T14:20:23.937Z,25.63
2018-02-10T14:22:50.206Z,33.13
2018-02-10T14:25:17.245Z,24.50
2018-02-10T14:27:43.578Z,22.10
2018-02-10T14:30:09.840Z,22.23
2018-02-10T14:32:36.245Z,21.37
2018-02-10T14:35:02.573Z,22.90
2018-02-10T14:37:28.834Z,20.13
2018-02-10T14:39:55.389Z,21.20
2018-02-10T14:42:21.669Z,18.23
2018-02-10T14:44:47.921Z,19.47
2018-02-10T14:47:14.540Z,20.13
2018-02-10T14:49:40.845Z,22.57
2018-02-10T14:52:07.143Z,22.60
2018-02-10T14:54:33.455Z,39.03
2018-02-10T14:57:00.421Z,23.17
2018-02-10T14:59:26.732Z,25.40
2018-02-10T15:01:53.029Z,22.63
2018-02-10T15:04:19.331Z,23.43
2018-02-10T15:06:45.604Z,24.80
2018-02-10T15:09:11.888Z,20.83
2018-02-10T15:11:38.193Z,25.17
2018-02-10T15:14:04.485Z,23.00
2018-02-10T15:16:30.753Z,26.87
2018-02-10T15:18:57.045Z,26.53
2018-02-10T15:21:23.308Z,25.83
2018-02-10T15:23:50.330Z,19.93
2018-02-10T15:26:16.657Z,18.50
2018-02-10T15:28:43.732Z,20.67
2018-02-10T15:34:30.360Z,22.93
2018-02-10T15:36:56.685Z,17.83
2018-02-10T15:39:22.940Z,22.00
2018-02-10T15:41:49.285Z,22.40
2018-02-10T15:44:15.572Z,23.90
2018-02-10T15:46:41.844Z,19.50
2018-02-10T15:49:08.129Z,23.43
2018-02-10T15:51:34.385Z,24.83
2018-02-10T15:54:00.688Z,17.83
2018-02-10T15:56:26.953Z,24.47
2018-02-10T15:58:53.225Z,23.63
2018-02-10T16:01:19.548Z,24.50
2018-02-10T16:03:45.845Z,22.30
2018-02-10T16:06:12.165Z,25.53
2018-02-10T16:08:38.408Z,26.53
2018-02-10T16:11:05.412Z,26.20
2018-02-10T16:13:31.750Z,25.90
2018-02-10T16:15:58.745Z,28.90
2018-02-10T16:18:25.009Z,26.53
2018-02-10T16:20:52.030Z,25.43
2018-02-10T16:23:19.025Z,27.87
2018-02-10T16:25:45.298Z,26.43
2018-02-10T16:28:11.574Z,24.10
2018-02-10T16:30:37.834Z,26.97
2018-02-10T16:33:04.094Z,27.27
2018-02-10T16:35:30.377Z,25.07
2018-02-10T16:37:56.636Z,24.83
2018-02-10T16:40:22.892Z,32.17
2018-02-10T16:42:49.180Z,28.03
2018-02-10T16:45:16.177Z,26.80
2018-02-10T16:47:42.460Z,26.37
2018-02-10T16:50:08.717Z,27.03
2018-02-10T16:52:35.037Z,26.73
2018-02-10T16:55:01.327Z,30.67
2018-02-10T16:57:28.146Z,28.43
2018-02-10T16:59:54.468Z,39.33
2018-02-10T17:02:20.724Z,46.70
2018-02-10T17:04:47.018Z,55.80
2018-02-10T17:07:13.320Z,47.10
2018-02-10T17:09:39.601Z,51.77
2018-02-10T17:12:05.886Z,40.73
2018-02-10T17:14:32.903Z,34.73
2018-02-10T17:16:59.200Z,31.87
2018-02-10T17:19:25.516Z,29.57
2018-02-10T17:21:51.749Z,30.90
2018-02-10T17:24:18.021Z,28.57
2018-02-10T17:26:44.281Z,30.63
2018-02-10T17:29:10.538Z,30.90
2018-02-10T17:31:36.816Z,30.27
2018-02-10T17:34:03.825Z,30.47
2018-02-10T17:36:30.121Z,29.77
2018-02-10T17:38:56.419Z,31.97
2018-02-10T17:41:22.680Z,32.53
2018-02-10T17:43:48.965Z,29.77
2018-02-10T17:46:15.239Z,31.67
2018-02-10T17:48:42.273Z,33.60
2018-02-10T17:51:09.281Z,32.00
2018-02-10T17:53:35.541Z,35.53
2018-02-10T17:56:01.846Z,29.33
2018-02-10T17:58:28.227Z,35.60
2018-02-10T18:00:54.514Z,31.17
2018-02-10T18:03:21.530Z,30.93
2018-02-10T18:05:47.838Z,32.73
2018-02-10T18:08:14.133Z,30.33
2018-02-10T18:10:41.144Z,36.53
2018-02-10T18:13:07.524Z,32.60
2018-02-10T18:15:33.773Z,32.10
2018-02-10T18:18:00.043Z,33.90
2018-02-10T18:20:26.333Z,35.27
2018-02-10T18:22:52.590Z,38.00
2018-02-10T18:25:18.874Z,42.07
2018-02-10T18:27:45.146Z,40.30
2018-02-10T18:30:11.394Z,39.37
2018-02-10T18:32:37.680Z,31.40
2018-02-10T18:35:03.945Z,32.13
2018-02-10T18:37:30.229Z,29.57
2018-02-10T18:39:57.325Z,31.93
2018-02-10T18:42:23.589Z,34.17
2018-02-10T18:44:49.884Z,32.63
2018-02-10T18:47:16.922Z,33.27
2018-02-10T18:49:43.237Z,33.97
2018-02-10T18:52:10.235Z,34.30
2018-02-10T18:54:36.513Z,32.57
2018-02-10T18:57:02.852Z,36.43
2018-02-10T18:59:29.102Z,37.30
2018-02-10T19:01:55.380Z,36.73
2018-02-10T19:04:21.706Z,34.03
2018-02-10T19:06:47.990Z,34.57
2018-02-10T19:09:14.294Z,36.13
2018-02-10T19:11:40.578Z,32.77
2018-02-10T19:14:06.929Z,32.20
2018-02-10T19:16:33.198Z,34.70
2018-02-10T19:18:59.465Z,38.73
2018-02-10T19:21:25.735Z,38.07
2018-02-10T19:23:51.995Z,37.53
2018-02-10T19:26:18.382Z,38.50
2018-02-10T19:28:45.387Z,32.27
2018-02-10T19:31:11.688Z,42.93
2018-02-10T19:33:37.986Z,42.63
2018-02-10T19:36:04.263Z,47.00
2018-02-10T19:38:31.298Z,42.30
2018-02-10T19:40:58.341Z,46.83
2018-02-10T19:43:25.342Z,43.40
2018-02-10T19:45:51.626Z,42.67
2018-02-10T19:48:20.814Z,42.07
2018-02-10T19:50:50.404Z,43.57
2018-02-10T19:53:17.899Z,46.83
2018-02-10T19:55:44.922Z,42.73
2018-02-10T19:58:12.923Z,45.17
2018-02-10T20:00:39.209Z,42.30
2018-02-10T20:03:05.561Z,39.80
2018-02-10T20:05:31.818Z,55.13
2018-02-10T20:07:58.153Z,42.07
2018-02-10T20:10:25.178Z,46.77
2018-02-10T20:12:52.172Z,40.33
2018-02-10T20:15:18.505Z,41.83
2018-02-10T20:17:44.765Z,41.00
2018-02-10T20:20:11.031Z,41.87
2018-02-10T20:22:37.322Z,42.70
2018-02-10T20:25:03.603Z,40.20
2018-02-10T20:27:29.853Z,44.67
2018-02-10T20:29:56.122Z,43.50
2018-02-10T20:32:23.138Z,44.37
2018-02-10T20:34:50.153Z,41.00
2018-02-10T20:37:16.454Z,44.13
2018-02-10T20:39:42.716Z,43.97
2018-02-10T20:42:09.013Z,43.73
2018-02-10T20:44:36.009Z,41.83
2018-02-10T20:47:02.266Z,44.23
2018-02-10T20:49:29.281Z,42.70
2018-02-10T20:51:55.532Z,41.07
2018-02-10T20:54:21.826Z,37.63
2018-02-10T20:56:48.825Z,42.23
2018-02-10T20:59:15.077Z,41.33
2018-02-10T21:01:42.114Z,45.57
2018-02-10T21:04:09.101Z,43.37
2018-02-10T21:06:35.422Z,42.80
2018-02-10T21:09:01.801Z,42.70
2018-02-10T21:11:28.058Z,39.30
2018-02-10T21:13:54.329Z,60.83
2018-02-10T21:16:20.585Z,49.87
2018-02-10T21:18:46.856Z,51.13
2018-02-10T21:21:13.115Z,45.43
2018-02-10T21:23:39.376Z,48.23
2018-02-10T21:26:05.738Z,45.27
2018-02-10T21:28:32.006Z,37.90
2018-02-10T21:30:58.284Z,42.00
2018-02-10T21:33:24.595Z,45.90
2018-02-10T21:35:50.845Z,46.63
2018-02-10T21:38:17.867Z,45.10
2018-02-10T21:40:44.886Z,44.80
2018-02-10T21:43:11.169Z,48.53
2018-02-10T21:45:37.438Z,45.27
2018-02-10T21:48:03.716Z,47.07
2018-02-10T21:50:29.998Z,44.40
2018-02-10T21:52:56.270Z,44.63
2018-02-10T21:55:23.285Z,43.67
2018-02-10T21:57:49.575Z,42.73
2018-02-10T22:00:15.849Z,37.13
2018-02-10T22:02:42.860Z,37.33
2018-02-10T22:05:09.109Z,35.37
2018-02-10T22:07:35.406Z,32.57
2018-02-10T22:10:05.271Z,31.80
2018-02-10T22:12:32.082Z,31.50
2018-02-10T22:14:59.110Z,28.83
2018-02-10T22:17:26.305Z,28.60
2018-02-10T22:19:53.454Z,22.83
2018-02-10T22:22:19.888Z,28.63
2018-02-10T22:24:47.796Z,24.70
2018-02-10T22:27:15.357Z,28.60
2018-02-10T22:29:41.683Z,29.40
2018-02-10T22:32:08.014Z,30.87
2018-02-10T22:34:35.418Z,31.43
2018-02-10T22:37:01.725Z,28.50
2018-02-10T22:39:28.010Z,29.97
2018-02-10T22:41:54.418Z,28.87
2018-02-10T22:44:20.998Z,26.90
2018-02-10T22:46:48.107Z,31.60
2018-02-10T22:49:14.459Z,28.60
2018-02-10T22:51:40.762Z,31.90
2018-02-10T22:54:07.856Z,31.93
2018-02-10T22:56:34.261Z,34.53
2018-02-10T22:59:00.520Z,29.80
2018-02-10T23:01:27.638Z,30.33
2018-02-10T23:03:53.926Z,27.80
2018-02-10T23:06:20.182Z,32.87
2018-02-10T23:08:47.218Z,25.83
2018-02-10T23:11:14.278Z,31.07
2018-02-10T23:13:40.543Z,33.00
2018-02-10T23:16:06.900Z,34.47
2018-02-10T23:18:33.908Z,30.23
2018-02-10T23:21:00.214Z,43.20
2018-02-10T23:23:26.473Z,40.37
2018-02-10T23:25:52.774Z,31.93
2018-02-10T23:28:19.073Z,32.47
2018-02-10T23:30:46.129Z,27.07
2018-02-10T23:33:12.436Z,30.67
2018-02-10T23:35:38.730Z,25.00
2018-02-10T23:38:04.997Z,29.83
2018-02-10T23:40:31.285Z,31.17
2018-02-10T23:42:58.304Z,30.80
2018-02-10T23:45:25.347Z,21.83
2018-02-10T23:47:52.380Z,25.40
2018-02-10T23:50:18.669Z,23.10
2018-02-10T23:52:45.027Z,23.67
2018-02-10T23:55:11.302Z,19.03
2018-02-10T23:57:37.607Z,21.70
